Time;durP1;ratioP1;P1;durP2;ratioP2;P2;SDS_P1;SDS_P2;PMS_P1;PMS_P2;Temp;Humidity;BMP_temperature;BMP_pressure;BME280_temperature;BME280_humidity;BME280_pressure;Samples;Min_cycle;Max_cycle;Signal;HPM_P1;HPM_P2
2023/10/16 00:02:23;;;;;;;0.10;0.10;;;5.90;99.90;;;;;;4958869;28;20186;-80
2023/10/16 00:04:49;;;;;;;0.00;0.00;;;6.00;99.90;;;;;;4958171;28;20183;-80
2023/10/16 00:07:20;;;;;;;0.10;0.10;;;6.00;99.90;;;;;;4960721;28;20586;-80
2023/10/16 00:09:53;;;;;;;0.10;0.10;;;6.10;99.90;;;;;;4960368;28;20187;-80
2023/10/16 00:12:29;;;;;;;0.10;0.10;;;6.00;99.90;;;;;;5087060;27;21105;-79
2023/10/16 00:14:54;;;;;;;0.10;0.10;;;6.00;99.90;;;;;;5092872;28;20271;-79
2023/10/16 00:17:21;;;;;;;0.10;0.10;;;5.90;99.90;;;;;;5082508;28;20204;-79
2023/10/16 00:19:47;;;;;;;0.10;0.10;;;5.90;99.90;;;;;;5084044;28;20559;-79
2023/10/16 00:22:18;;;;;;;0.10;0.10;;;5.90;99.90;;;;;;5086538;28;20182;-79
2023/10/16 00:24:47;;;;;;;0.10;0.10;;;6.00;99.90;;;;;;5086299;28;20186;-79
2023/10/16 00:27:16;;;;;;;0.00;0.00;;;6.00;99.90;;;;;;5085257;28;20208;-79
2023/10/16 00:29:45;;;;;;;0.10;0.10;;;6.00;99.90;;;;;;5084983;28;20186;-79
2023/10/16 00:32:11;;;;;;;0.07;0.07;;;5.90;99.90;;;;;;5076265;28;20282;-79
2023/10/16 00:34:38;;;;;;;0.10;0.10;;;5.90;99.90;;;;;;5084141;28;20216;-79
2023/10/16 00:37:04;;;;;;;0.10;0.10;;;5.90;99.90;;;;;;5084189;28;20202;-79
2023/10/16 00:39:35;;;;;;;0.10;0.10;;;5.80;99.90;;;;;;5083156;28;20695;-79
2023/10/16 00:42:01;;;;;;;0.10;0.10;;;5.70;99.90;;;;;;5082695;28;20188;-79
2023/10/16 00:44:33;;;;;;;0.10;0.10;;;5.70;99.90;;;;;;5084622;28;20186;-79
2023/10/16 00:47:04;;;;;;;0.10;0.10;;;5.30;99.90;;;;;;5084309;28;20235;-79
2023/10/16 00:49:34;;;;;;;0.10;0.10;;;5.10;99.90;;;;;;5084648;28;20275;-79
2023/10/16 00:51:59;;;;;;;0.10;0.10;;;5.10;99.90;;;;;;5101091;28;20293;-79
2023/10/16 00:54:28;;;;;;;0.10;0.10;;;5.10;99.90;;;;;;5085051;28;20603;-79
2023/10/16 00:56:59;;;;;;;0.10;0.10;;;5.20;99.90;;;;;;5083744;28;20197;-79
2023/10/16 00:59:25;;;;;;;0.10;0.10;;;5.00;99.90;;;;;;5085851;28;20498;-79
2023/10/16 01:04:32;;;;;;;0.10;0.10;;;5.20;99.90;;;;;;5086344;28;20200;-79
2023/10/16 01:06:58;;;;;;;0.10;0.10;;;5.40;99.90;;;;;;5083094;28;20287;-79
2023/10/16 01:09:24;;;;;;;0.10;0.10;;;5.50;99.90;;;;;;5084075;28;21160;-79
2023/10/16 01:11:54;;;;;;;0.10;0.10;;;5.50;99.90;;;;;;5083834;28;20311;-79
2023/10/16 01:14:19;;;;;;;0.10;0.10;;;5.50;99.90;;;;;;5084617;28;20242;-79
2023/10/16 01:16:46;;;;;;;0.10;0.10;;;5.50;99.90;;;;;;5084060;28;20205;-79
2023/10/16 01:19:19;;;;;;;0.10;0.10;;;5.30;99.90;;;;;;5083428;28;20174;-79
2023/10/16 01:21:46;;;;;;;0.10;0.10;;;5.10;99.90;;;;;;5080728;28;20243;-79
2023/10/16 01:24:12;;;;;;;0.00;0.00;;;5.00;99.90;;;;;;5070527;28;20623;-79
2023/10/16 01:26:42;;;;;;;0.00;0.00;;;5.00;99.90;;;;;;5070841;28;20683;-79
2023/10/16 01:29:09;;;;;;;0.10;0.10;;;5.00;99.90;;;;;;5066255;28;20185;-79
2023/10/16 01:31:36;;;;;;;0.00;0.00;;;5.20;99.90;;;;;;5071294;28;20759;-79
2023/10/16 01:34:02;;;;;;;0.10;0.10;;;5.30;99.90;;;;;;5065718;28;20190;-79
2023/10/16 01:36:30;;;;;;;0.00;0.00;;;5.30;99.90;;;;;;5070625;28;20206;-79
2023/10/16 01:38:59;;;;;;;0.10;0.10;;;5.30;99.90;;;;;;5063490;28;20205;-79
2023/10/16 01:41:25;;;;;;;0.10;0.10;;;5.40;99.90;;;;;;5070755;28;20516;-79
2023/10/16 01:43:52;;;;;;;0.10;0.10;;;5.20;99.90;;;;;;5069661;28;20268;-79
2023/10/16 01:46:18;;;;;;;0.10;0.10;;;5.00;99.90;;;;;;5064095;28;20219;-79
2023/10/16 01:48:45;;;;;;;0.10;0.10;;;5.10;99.90;;;;;;5071163;28;20588;-79
2023/10/16 01:51:20;;;;;;;0.10;0.10;;;5.00;99.90;;;;;;5065787;28;20241;-79
2023/10/16 01:53:51;;;;;;;0.10;0.10;;;5.00;99.90;;;;;;5068912;28;20229;-79
2023/10/16 01:56:17;;;;;;;0.10;0.10;;;4.90;99.90;;;;;;5069165;28;20235;-79
2023/10/16 01:58:47;;;;;;;0.10;0.10;;;5.00;99.90;;;;;;5070762;28;20209;-79
2023/10/16 02:01:17;;;;;;;0.00;0.00;;;4.80;99.90;;;;;;5070883;28;20189;-79
2023/10/16 02:03:45;;;;;;;0.10;0.10;;;4.50;99.90;;;;;;5061883;28;20196;-78
2023/10/16 02:06:12;;;;;;;0.10;0.10;;;4.30;99.90;;;;;;5060902;28;20218;-79
2023/10/16 02:08:42;;;;;;;0.10;0.10;;;4.20;99.90;;;;;;5070802;28;20212;-79
2023/10/16 02:11:10;;;;;;;0.00;0.00;;;4.10;99.90;;;;;;5069462;28;20205;-79
2023/10/16 02:13:40;;;;;;;0.10;0.10;;;4.00;99.90;;;;;;5066175;28;20558;-79
2023/10/16 02:16:09;;;;;;;0.10;0.10;;;3.90;99.90;;;;;;5069161;28;20319;-79
2023/10/16 02:18:40;;;;;;;0.10;0.10;;;3.90;99.90;;;;;;5070469;28;20192;-79
2023/10/16 02:21:12;;;;;;;0.03;0.03;;;3.90;99.90;;;;;;5065724;28;20225;-79
2023/10/16 02:23:48;;;;;;;0.10;0.10;;;3.90;99.90;;;;;;5070239;28;20195;-79
2023/10/16 02:26:18;;;;;;;0.10;0.10;;;4.00;99.90;;;;;;5070106;28;20204;-79
2023/10/16 02:28:49;;;;;;;0.10;0.10;;;4.10;99.90;;;;;;5070636;28;20176;-79
2023/10/16 02:31:19;;;;;;;0.10;0.10;;;4.10;99.90;;;;;;5069834;28;20193;-79
2023/10/16 02:34:09;;;;;;;0.10;0.10;;;4.20;99.90;;;;;;5065702;28;20268;-79
2023/10/16 02:36:35;;;;;;;0.10;0.10;;;4.20;99.90;;;;;;5069929;28;20716;-80
2023/10/16 02:39:07;;;;;;;0.10;0.10;;;4.40;99.90;;;;;;5068645;28;20173;-80
2023/10/16 02:41:33;;;;;;;0.10;0.10;;;4.50;99.90;;;;;;5068965;28;20196;-79
2023/10/16 02:43:59;;;;;;;0.03;0.03;;;4.40;99.90;;;;;;5059539;28;20193;-79
2023/10/16 02:46:24;;;;;;;0.10;0.10;;;4.40;99.90;;;;;;5070266;28;20244;-79
2023/10/16 02:48:53;;;;;;;0.10;0.10;;;4.40;99.90;;;;;;5069745;28;20188;-79
2023/10/16 02:51:18;;;;;;;0.10;0.10;;;4.40;99.90;;;;;;5066555;28;20274;-79
2023/10/16 02:53:45;;;;;;;0.10;0.10;;;4.40;99.90;;;;;;5069215;28;20616;-79
2023/10/16 02:56:17;;;;;;;0.10;0.10;;;4.40;99.90;;;;;;5067614;28;20553;-80
2023/10/16 02:58:43;;;;;;;0.10;0.10;;;4.50;99.90;;;;;;5062236;28;20205;-79
2023/10/16 03:01:18;;;;;;;0.10;0.10;;;4.40;99.90;;;;;;5085240;28;20730;-79
2023/10/16 03:03:45;;;;;;;0.10;0.10;;;4.30;99.90;;;;;;5062965;28;20674;-79
2023/10/16 03:06:11;;;;;;;0.00;0.00;;;4.40;99.90;;;;;;5067523;28;20219;-79
2023/10/16 03:08:37;;;;;;;0.10;0.10;;;4.40;99.90;;;;;;5069629;28;20653;-79
2023/10/16 03:11:07;;;;;;;0.00;0.00;;;4.40;99.90;;;;;;5069452;28;20282;-79
2023/10/16 03:13:36;;;;;;;0.10;0.10;;;4.20;99.90;;;;;;5069479;28;20181;-79
2023/10/16 03:16:08;;;;;;;0.10;0.10;;;4.30;99.90;;;;;;5068363;28;20283;-79
2023/10/16 03:18:34;;;;;;;0.07;0.07;;;4.40;99.90;;;;;;5067390;28;20211;-79
2023/10/16 03:23:35;;;;;;;0.10;0.10;;;4.50;99.90;;;;;;5070203;28;20173;-79
2023/10/16 03:26:05;;;;;;;0.10;0.10;;;4.60;99.90;;;;;;5067821;28;20754;-79
2023/10/16 03:28:31;;;;;;;0.10;0.10;;;4.60;99.90;;;;;;5067539;28;20850;-79
2023/10/16 03:30:59;;;;;;;0.10;0.10;;;4.30;99.90;;;;;;5062134;28;20219;-79
2023/10/16 03:33:25;;;;;;;0.10;0.10;;;4.10;99.90;;;;;;5067691;28;20651;-80
2023/10/16 03:35:51;;;;;;;0.10;0.10;;;4.10;99.90;;;;;;5060533;28;20236;-79
2023/10/16 03:38:28;;;;;;;0.10;0.10;;;4.20;99.90;;;;;;5067581;28;20220;-79
2023/10/16 03:40:58;;;;;;;0.10;0.10;;;4.20;99.90;;;;;;5062612;28;20185;-79
2023/10/16 03:43:25;;;;;;;0.10;0.10;;;4.20;99.90;;;;;;5063643;28;20181;-79
2023/10/16 03:45:51;;;;;;;0.10;0.10;;;4.30;99.90;;;;;;5060798;28;20208;-79
2023/10/16 03:48:17;;;;;;;0.10;0.10;;;4.30;99.90;;;;;;5068763;28;20276;-79
2023/10/16 03:50:43;;;;;;;0.10;0.10;;;4.40;99.90;;;;;;5069166;28;20343;-79
2023/10/16 03:53:09;;;;;;;0.07;0.07;;;4.40;99.90;;;;;;5067575;28;20665;-79
2023/10/16 03:55:44;;;;;;;0.10;0.10;;;4.40;99.90;;;;;;5061751;28;20215;-79
2023/10/16 03:58:11;;;;;;;0.10;0.10;;;4.30;99.90;;;;;;5061287;28;20269;-79
2023/10/16 04:00:52;;;;;;;0.10;0.10;;;4.30;99.90;;;;;;5062642;28;20757;-79
2023/10/16 04:03:22;;;;;;;0.07;0.07;;;4.20;99.90;;;;;;5068212;28;20216;-79
2023/10/16 04:05:49;;;;;;;0.00;0.00;;;4.20;99.90;;;;;;5064434;28;20209;-78
2023/10/16 04:08:18;;;;;;;0.10;0.10;;;4.30;99.90;;;;;;5066664;28;20200;-79
2023/10/16 04:10:46;;;;;;;0.00;0.00;;;4.20;99.90;;;;;;5061069;28;20219;-79
2023/10/16 04:13:14;;;;;;;0.00;0.00;;;3.90;99.90;;;;;;5068542;28;20177;-79
2023/10/16 04:18:18;;;;;;;0.10;0.10;;;3.90;99.90;;;;;;5068055;28;20221;-79
2023/10/16 04:20:44;;;;;;;0.10;0.10;;;4.00;99.90;;;;;;5067786;28;20280;-79
2023/10/16 04:29:45;;;;;;;0.00;0.00;;;4.20;99.90;;;;;;5020159;28;20201;-79
2023/10/16 04:31:44;;;;;;;0.00;0.00;;;4.20;99.90;;;;;;5056181;28;20266;-78
2023/10/16 04:47:47;;;;;;;0.10;0.10;;;4.40;99.90;;;;;;5066336;28;20181;-79
2023/10/16 04:50:15;;;;;;;0.10;0.10;;;4.40;99.90;;;;;;5067149;28;20213;-78
2023/10/16 05:00:57;;;;;;;0.10;0.10;;;4.30;99.90;;;;;;5071667;28;20663;-78
2023/10/16 05:06:27;;;;;;;0.10;0.10;;;4.20;99.90;;;;;;5071257;28;20208;-79
2023/10/16 05:17:21;;;;;;;0.07;0.07;;;3.80;99.90;;;;;;5070643;28;20201;-78
2023/10/16 05:19:53;;;;;;;0.10;0.10;;;3.60;99.90;;;;;;5070386;28;20212;-78
2023/10/16 06:14:20;;;;;;;0.10;0.10;;;5.10;99.90;;;;;;5073450;28;20242;-80
2023/10/16 06:16:47;;;;;;;0.10;0.10;;;5.10;99.90;;;;;;5072068;28;20575;-80
2023/10/16 06:19:18;;;;;;;0.07;0.07;;;5.20;99.90;;;;;;5069452;28;20625;-80
2023/10/16 06:21:47;;;;;;;0.00;0.00;;;5.30;99.90;;;;;;5071963;28;20188;-80
2023/10/16 06:24:33;;;;;;;0.00;0.00;;;5.20;99.90;;;;;;5069644;28;20192;-80
2023/10/16 06:27:00;;;;;;;0.10;0.10;;;5.30;99.90;;;;;;5067653;28;20249;-80
2023/10/16 06:29:35;;;;;;;0.10;0.10;;;5.30;99.90;;;;;;5068993;28;20192;-80
2023/10/16 06:32:19;;;;;;;0.00;0.00;;;5.50;99.90;;;;;;5060726;28;20201;-79
2023/10/16 06:34:49;;;;;;;0.00;0.00;;;5.50;99.90;;;;;;5064026;28;20664;-79
2023/10/16 06:37:19;;;;;;;0.10;0.10;;;5.60;99.90;;;;;;5067105;28;20288;-79
2023/10/16 06:39:49;;;;;;;0.10;0.10;;;5.60;99.90;;;;;;5063934;28;20323;-80
2023/10/16 06:42:17;;;;;;;0.10;0.10;;;5.60;99.90;;;;;;5065323;28;20606;-79
2023/10/16 06:44:53;;;;;;;0.10;0.10;;;5.70;99.90;;;;;;5065393;28;20725;-80
2023/10/16 06:47:35;;;;;;;0.10;0.10;;;5.80;99.90;;;;;;5067871;28;20896;-80
2023/10/16 06:50:01;;;;;;;0.10;0.10;;;5.70;99.90;;;;;;5068148;28;20187;-80
2023/10/16 06:52:27;;;;;;;0.00;0.00;;;5.80;99.90;;;;;;5061391;28;20208;-80
2023/10/16 06:54:52;;;;;;;0.00;0.00;;;5.80;99.90;;;;;;5060556;28;20551;-79
2023/10/16 06:57:19;;;;;;;0.10;0.10;;;6.00;99.90;;;;;;5067305;28;20258;-79
2023/10/16 06:59:45;;;;;;;0.07;0.07;;;6.10;99.90;;;;;;5068520;28;20242;-79
2023/10/16 07:02:19;;;;;;;0.10;0.10;;;6.20;99.90;;;;;;5060562;28;20759;-79
2023/10/16 07:04:47;;;;;;;0.00;0.00;;;6.20;99.90;;;;;;5064870;28;20190;-79
2023/10/16 07:07:16;;;;;;;0.10;0.10;;;6.40;99.90;;;;;;5068826;28;20575;-79
2023/10/16 07:09:49;;;;;;;0.10;0.10;;;6.50;99.90;;;;;;5065845;28;20192;-79
2023/10/16 07:12:18;;;;;;;0.10;0.10;;;6.70;99.90;;;;;;5065597;28;20267;-79
2023/10/16 07:14:55;;;;;;;0.00;0.00;;;6.70;99.90;;;;;;5066841;28;20566;-79
2023/10/16 07:17:38;;;;;;;0.10;0.10;;;6.60;99.90;;;;;;5066958;28;20202;-80
2023/10/16 07:20:17;;;;;;;0.10;0.10;;;6.50;99.90;;;;;;5064641;28;20189;-79
2023/10/16 07:22:43;;;;;;;0.00;0.00;;;6.70;99.90;;;;;;5064228;28;20212;-79
2023/10/16 07:25:24;;;;;;;0.10;0.10;;;6.90;99.90;;;;;;5067608;28;20228;-78
2023/10/16 07:27:57;;;;;;;0.10;0.10;;;6.90;99.90;;;;;;5065943;28;20270;-79
2023/10/16 07:30:24;;;;;;;0.10;0.10;;;6.60;99.90;;;;;;5067687;28;20183;-79
2023/10/16 07:32:50;;;;;;;0.10;0.10;;;6.80;99.90;;;;;;5062033;28;20554;-79
2023/10/16 07:35:21;;;;;;;0.10;0.10;;;6.90;99.90;;;;;;5059494;28;20186;-79
2023/10/16 07:37:53;;;;;;;0.10;0.10;;;7.10;99.90;;;;;;5057571;28;20190;-80
2023/10/16 07:40:25;;;;;;;0.10;0.10;;;7.10;99.90;;;;;;5059342;28;20621;-79
2023/10/16 07:42:52;;;;;;;0.00;0.00;;;7.00;99.90;;;;;;5065722;28;20184;-80
2023/10/16 07:45:19;;;;;;;0.10;0.10;;;6.20;99.90;;;;;;5062361;28;20206;-80
2023/10/16 07:47:48;;;;;;;0.00;0.00;;;6.20;99.90;;;;;;5060946;28;20594;-79
2023/10/16 07:50:14;;;;;;;0.10;0.10;;;6.40;99.90;;;;;;5067820;28;20717;-79
2023/10/16 07:52:42;;;;;;;0.10;0.10;;;6.70;99.90;;;;;;5068621;28;20229;-81
2023/10/16 07:55:17;;;;;;;0.07;0.07;;;6.90;99.90;;;;;;5068245;28;20196;-79
2023/10/16 07:57:44;;;;;;;0.10;0.10;;;7.20;99.90;;;;;;5064404;28;20225;-79
2023/10/16 08:00:14;;;;;;;0.10;0.10;;;7.50;99.90;;;;;;5065029;28;20231;-80
2023/10/16 08:02:45;;;;;;;0.00;0.00;;;7.80;99.90;;;;;;5058414;28;20195;-80
2023/10/16 08:05:16;;;;;;;0.10;0.10;;;8.00;99.90;;;;;;5068125;28;20228;-79
2023/10/16 08:07:49;;;;;;;0.10;0.10;;;7.90;99.90;;;;;;5058985;28;20200;-78
2023/10/16 08:13:11;;;;;;;0.00;0.00;;;7.80;99.90;;;;;;5066981;28;20234;-79
2023/10/16 08:15:47;;;;;;;0.10;0.10;;;8.10;99.90;;;;;;5064652;28;20276;-78
2023/10/16 08:18:13;;;;;;;0.10;0.10;;;8.40;99.90;;;;;;5067046;28;20177;-79
2023/10/16 08:21:00;;;;;;;0.00;0.00;;;8.70;99.90;;;;;;5066924;28;20258;-79
2023/10/16 08:23:33;;;;;;;0.10;0.10;;;9.00;99.90;;;;;;5066667;28;20172;-79
2023/10/16 08:26:14;;;;;;;0.03;0.03;;;9.00;99.90;;;;;;5058093;28;20190;-79
2023/10/16 08:28:45;;;;;;;0.10;0.10;;;9.10;99.90;;;;;;5065905;28;20169;-78
2023/10/16 08:31:23;;;;;;;0.03;0.03;;;9.40;99.90;;;;;;5064368;28;20241;-78
2023/10/16 08:33:50;;;;;;;0.10;0.10;;;9.60;99.90;;;;;;5069384;28;20180;-78
2023/10/16 08:36:20;;;;;;;0.07;0.07;;;9.80;99.90;;;;;;5069860;28;20216;-78
2023/10/16 08:38:52;;;;;;;0.03;0.03;;;9.70;99.90;;;;;;5066140;28;20185;-78
2023/10/16 08:41:30;;;;;;;0.10;0.10;;;9.90;99.90;;;;;;5064614;28;20189;-79
2023/10/16 08:44:05;;;;;;;0.10;0.10;;;10.00;99.90;;;;;;5070394;28;20173;-79
2023/10/16 08:46:31;;;;;;;0.10;0.10;;;10.00;99.90;;;;;;5068154;28;20207;-78
2023/10/16 08:48:59;;;;;;;0.10;0.10;;;10.30;99.90;;;;;;5063240;28;20181;-78
2023/10/16 08:51:28;;;;;;;0.00;0.00;;;10.50;99.90;;;;;;5065058;28;20215;-79
2023/10/16 08:53:59;;;;;;;0.10;0.10;;;10.50;99.90;;;;;;5064503;28;20278;-78
2023/10/16 08:56:25;;;;;;;0.10;0.10;;;10.60;99.90;;;;;;5068052;28;20198;-79
2023/10/16 08:58:55;;;;;;;0.10;0.10;;;10.40;99.90;;;;;;5067805;28;20238;-78
2023/10/16 09:01:23;;;;;;;0.10;0.10;;;10.30;99.90;;;;;;5069050;28;20247;-79
2023/10/16 09:03:54;;;;;;;0.10;0.10;;;10.30;99.90;;;;;;5069857;28;20184;-78
2023/10/16 09:06:23;;;;;;;0.10;0.10;;;10.60;99.90;;;;;;5063160;28;20205;-78
2023/10/16 09:08:54;;;;;;;0.10;0.10;;;10.50;99.90;;;;;;5061945;28;20203;-78
2023/10/16 09:11:20;;;;;;;0.10;0.10;;;10.10;99.90;;;;;;5067966;28;20213;-79
2023/10/16 09:13:51;;;;;;;0.10;0.10;;;10.50;99.90;;;;;;5061454;28;20181;-79
2023/10/16 09:16:23;;;;;;;0.10;0.10;;;10.80;99.90;;;;;;5065533;28;20205;-79
2023/10/16 09:18:53;;;;;;;0.10;0.10;;;10.70;99.90;;;;;;5062088;28;20216;-79
2023/10/16 09:21:27;;;;;;;0.00;0.00;;;10.90;99.90;;;;;;5070145;28;20188;-79
2023/10/16 09:23:58;;;;;;;0.10;0.10;;;11.20;99.90;;;;;;5067941;28;20189;-79
2023/10/16 09:26:28;;;;;;;0.10;0.10;;;11.50;99.90;;;;;;5069704;28;20197;-79
2023/10/16 09:29:15;;;;;;;0.10;0.10;;;11.00;99.90;;;;;;5068037;28;20181;-79
2023/10/16 09:31:44;;;;;;;0.10;0.10;;;10.90;99.90;;;;;;5069412;28;20192;-79
2023/10/16 09:34:12;;;;;;;0.10;0.10;;;10.80;99.90;;;;;;5063791;28;20185;-79
2023/10/16 09:36:38;;;;;;;0.10;0.10;;;11.20;99.90;;;;;;5066949;28;20197;-79
2023/10/16 09:39:16;;;;;;;0.10;0.10;;;11.50;99.90;;;;;;5068841;28;20192;-79
2023/10/16 09:41:43;;;;;;;0.10;0.10;;;11.70;99.90;;;;;;5061395;28;20186;-79
2023/10/16 09:44:09;;;;;;;0.10;0.10;;;11.30;99.90;;;;;;5063598;28;20193;-79
2023/10/16 09:49:24;;;;;;;0.10;0.10;;;11.50;99.90;;;;;;5070716;28;20181;-79
2023/10/16 09:51:57;;;;;;;0.10;0.10;;;11.30;99.90;;;;;;5067819;28;20239;-79
2023/10/16 09:54:25;;;;;;;0.10;0.10;;;10.70;99.90;;;;;;5068055;28;20628;-79
2023/10/16 09:56:59;;;;;;;0.10;0.10;;;10.90;99.90;;;;;;5059935;28;20207;-79
2023/10/16 09:59:31;;;;;;;0.10;0.10;;;11.00;99.90;;;;;;5067865;28;20181;-79
2023/10/16 10:02:05;;;;;;;0.00;0.00;;;11.30;99.90;;;;;;5066122;28;20221;-79
2023/10/16 10:04:32;;;;;;;0.07;0.07;;;11.40;99.90;;;;;;5069167;28;20531;-79
2023/10/16 10:07:01;;;;;;;0.10;0.10;;;11.30;99.90;;;;;;5068608;28;20220;-79
2023/10/16 10:09:44;;;;;;;0.03;0.03;;;11.10;99.90;;;;;;5068794;28;20189;-78
2023/10/16 10:12:37;;;;;;;0.10;0.10;;;11.50;99.90;;;;;;5067069;28;20661;-79
2023/10/16 10:15:22;;;;;;;0.10;0.10;;;11.40;99.90;;;;;;5068222;28;20181;-79
2023/10/16 10:17:52;;;;;;;0.10;0.10;;;11.60;99.90;;;;;;5061788;28;20192;-79
2023/10/16 10:20:24;;;;;;;0.10;0.10;;;11.30;99.90;;;;;;5065509;28;20223;-79
2023/10/16 10:22:56;;;;;;;0.10;0.10;;;11.80;99.90;;;;;;5069167;28;20165;-79
2023/10/16 10:25:26;;;;;;;0.10;0.10;;;12.40;99.90;;;;;;5060233;28;20615;-79
2023/10/16 10:28:09;;;;;;;0.00;0.00;;;12.80;99.90;;;;;;5066507;28;20207;-79
2023/10/16 10:30:39;;;;;;;0.10;0.10;;;12.60;99.90;;;;;;5066115;28;20239;-79
2023/10/16 10:33:06;;;;;;;0.10;0.10;;;13.00;99.90;;;;;;5068033;28;20181;-79
2023/10/16 10:35:43;;;;;;;0.10;0.10;;;12.40;99.90;;;;;;5065343;28;20197;-79
2023/10/16 10:38:21;;;;;;;0.10;0.10;;;12.60;99.90;;;;;;5063117;28;20184;-79
2023/10/16 10:41:06;;;;;;;0.10;0.10;;;12.10;99.90;;;;;;5069055;28;20176;-79
2023/10/16 10:43:46;;;;;;;0.10;0.10;;;12.10;99.90;;;;;;5064340;28;20189;-79
2023/10/16 10:46:24;;;;;;;0.10;0.10;;;12.40;99.90;;;;;;5069593;28;20193;-79
2023/10/16 10:48:50;;;;;;;0.10;0.10;;;13.00;99.90;;;;;;5067567;28;20189;-79
2023/10/16 10:51:16;;;;;;;0.10;0.10;;;12.80;99.90;;;;;;5069827;28;20215;-79
2023/10/16 10:53:58;;;;;;;0.10;0.10;;;13.10;99.90;;;;;;5063257;28;20187;-79
2023/10/16 10:56:41;;;;;;;0.10;0.10;;;13.30;99.90;;;;;;5060985;28;20566;-79
2023/10/16 10:59:10;;;;;;;0.10;0.10;;;13.70;99.90;;;;;;5060120;28;20184;-79
2023/10/16 11:02:08;;;;;;;0.10;0.10;;;13.80;99.90;;;;;;5068321;28;20279;-79
2023/10/16 11:04:34;;;;;;;0.10;0.10;;;13.50;99.90;;;;;;5068340;28;20240;-79
2023/10/16 11:07:11;;;;;;;0.10;0.10;;;13.90;99.90;;;;;;5063405;28;20203;-79
2023/10/16 11:09:38;;;;;;;0.10;0.10;;;13.50;99.90;;;;;;5084844;28;20563;-79
2023/10/16 11:12:06;;;;;;;0.10;0.10;;;13.90;99.90;;;;;;5059571;28;20552;-79
2023/10/16 11:14:34;;;;;;;0.10;0.10;;;14.10;99.90;;;;;;5060656;28;20600;-79
2023/10/16 11:17:00;;;;;;;0.10;0.10;;;14.00;99.90;;;;;;5066744;28;20222;-79
2023/10/16 11:19:29;;;;;;;0.10;0.10;;;13.50;99.90;;;;;;5062606;28;20181;-79
2023/10/16 11:22:00;;;;;;;0.10;0.10;;;13.30;99.90;;;;;;5060492;28;21104;-79
2023/10/16 11:24:25;;;;;;;0.10;0.10;;;13.70;99.90;;;;;;5062113;28;20222;-79
2023/10/16 11:26:54;;;;;;;0.10;0.10;;;13.80;99.90;;;;;;5063027;28;20645;-79
2023/10/16 11:29:20;;;;;;;0.10;0.10;;;14.00;99.90;;;;;;5067279;28;20190;-79
2023/10/16 11:31:45;;;;;;;0.10;0.10;;;13.20;99.90;;;;;;5061855;28;20211;-79
2023/10/16 11:34:14;;;;;;;0.10;0.10;;;13.40;99.90;;;;;;5066646;28;20190;-79
2023/10/16 11:36:40;;;;;;;0.10;0.10;;;12.70;99.90;;;;;;5068030;28;20771;-79
2023/10/16 11:39:07;;;;;;;0.10;0.10;;;13.20;99.90;;;;;;5064114;28;20191;-79
2023/10/16 11:41:33;;;;;;;0.10;0.10;;;13.70;99.90;;;;;;5067565;28;20185;-79
2023/10/16 11:46:55;;;;;;;0.00;0.00;;;13.00;99.90;;;;;;5057634;28;20254;-79
2023/10/16 11:49:37;;;;;;;0.10;0.10;;;12.70;99.90;;;;;;5066768;28;20216;-79
2023/10/16 11:52:23;;;;;;;0.10;0.10;;;12.80;99.90;;;;;;5064088;28;20743;-79
2023/10/16 11:54:58;;;;;;;0.10;0.10;;;12.80;99.90;;;;;;5064788;28;20240;-79
2023/10/16 11:57:25;;;;;;;0.10;0.10;;;12.30;99.90;;;;;;5065666;28;20207;-79
2023/10/16 11:59:55;;;;;;;0.10;0.10;;;12.40;99.90;;;;;;5068264;28;20174;-78
2023/10/16 12:02:23;;;;;;;0.10;0.10;;;12.50;99.90;;;;;;5063614;28;20264;-79
2023/10/16 12:04:49;;;;;;;0.10;0.10;;;12.70;99.90;;;;;;5068074;28;20308;-79
2023/10/16 12:07:15;;;;;;;0.10;0.10;;;12.60;99.90;;;;;;5066265;28;20208;-79
2023/10/16 12:09:53;;;;;;;0.10;0.10;;;12.70;99.90;;;;;;5064823;28;20183;-79
2023/10/16 12:12:24;;;;;;;0.10;0.10;;;12.80;99.90;;;;;;5067266;28;20219;-79
2023/10/16 12:14:50;;;;;;;0.07;0.07;;;12.40;99.90;;;;;;5066398;28;20177;-79
2023/10/16 12:17:19;;;;;;;0.00;0.00;;;13.00;99.90;;;;;;5064508;28;20201;-79
2023/10/16 12:19:46;;;;;;;0.10;0.10;;;13.10;99.90;;;;;;5065927;28;20185;-79
2023/10/16 12:22:15;;;;;;;0.10;0.10;;;12.90;99.90;;;;;;5060685;28;20192;-79
2023/10/16 12:24:43;;;;;;;0.10;0.10;;;12.90;99.90;;;;;;5067949;28;20196;-79
2023/10/16 12:27:10;;;;;;;0.10;0.10;;;13.00;99.90;;;;;;5063945;28;20252;-79
2023/10/16 12:29:36;;;;;;;0.67;0.67;;;13.70;99.90;;;;;;5067124;28;20268;-78
2023/10/16 12:32:03;;;;;;;0.10;0.10;;;13.40;99.90;;;;;;5066664;28;20585;-79
2023/10/16 12:34:32;;;;;;;0.10;0.10;;;13.00;99.90;;;;;;5067451;28;20173;-79
2023/10/16 12:37:00;;;;;;;0.10;0.10;;;13.70;99.90;;;;;;5059341;28;20589;-79
2023/10/16 12:39:30;;;;;;;0.10;0.10;;;13.40;99.90;;;;;;5064080;28;20185;-79
2023/10/16 12:41:57;;;;;;;0.00;0.00;;;13.90;99.90;;;;;;5062511;28;20198;-79
2023/10/16 12:44:23;;;;;;;0.10;0.10;;;14.10;99.90;;;;;;5063729;28;20289;-79
2023/10/16 12:46:52;;;;;;;0.10;0.10;;;14.00;99.90;;;;;;5062342;28;20247;-79
2023/10/16 12:49:17;;;;;;;0.10;0.10;;;14.00;99.90;;;;;;5066655;28;20185;-79
2023/10/16 12:51:43;;;;;;;0.10;0.10;;;13.90;99.90;;;;;;5067756;28;20698;-79
2023/10/16 12:54:12;;;;;;;0.10;0.10;;;13.90;99.90;;;;;;5060190;28;20670;-79
2023/10/16 12:56:41;;;;;;;0.10;0.10;;;13.50;99.90;;;;;;5062671;28;20206;-79
2023/10/16 12:59:08;;;;;;;0.10;0.10;;;14.00;99.90;;;;;;5067948;28;20186;-79
2023/10/16 13:01:34;;;;;;;0.10;0.10;;;13.30;99.90;;;;;;5063384;28;20691;-79
2023/10/16 13:04:03;;;;;;;0.10;0.10;;;13.70;99.90;;;;;;5065082;28;20191;-79
2023/10/16 13:06:30;;;;;;;0.10;0.10;;;13.20;99.90;;;;;;5062667;28;20216;-79
2023/10/16 13:09:02;;;;;;;0.10;0.10;;;13.00;99.90;;;;;;5058588;28;20196;-79
2023/10/16 13:11:28;;;;;;;0.10;0.10;;;13.00;99.90;;;;;;5065681;28;20237;-79
2023/10/16 13:13:55;;;;;;;0.10;0.10;;;13.20;99.90;;;;;;5063117;28;20633;-80
2023/10/16 13:16:24;;;;;;;0.00;0.00;;;13.50;99.90;;;;;;5067715;28;20201;-79
2023/10/16 13:18:59;;;;;;;0.00;0.00;;;13.30;99.90;;;;;;5060815;28;20272;-79
2023/10/16 13:21:35;;;;;;;0.10;0.10;;;13.80;99.90;;;;;;5070188;28;20191;-79
2023/10/16 13:24:03;;;;;;;0.10;0.10;;;12.90;99.90;;;;;;5066160;28;20192;-79
2023/10/16 13:26:31;;;;;;;0.03;0.03;;;13.20;99.90;;;;;;5064884;28;20209;-79
2023/10/16 13:28:57;;;;;;;0.10;0.10;;;12.80;99.90;;;;;;5070538;28;20264;-79
2023/10/16 13:31:23;;;;;;;0.10;0.10;;;13.10;99.90;;;;;;5069362;28;20220;-79
2023/10/16 13:33:50;;;;;;;0.10;0.10;;;13.20;99.90;;;;;;5069261;28;20192;-79
2023/10/16 13:36:17;;;;;;;0.10;0.10;;;12.90;99.90;;;;;;5069547;28;21941;-79
2023/10/16 13:38:44;;;;;;;0.10;0.10;;;13.10;99.90;;;;;;5063398;28;20923;-79
2023/10/16 13:41:19;;;;;;;0.10;0.10;;;12.80;99.90;;;;;;5064618;28;20235;-79
2023/10/16 13:43:46;;;;;;;0.10;0.10;;;12.60;99.90;;;;;;5071777;28;20182;-79
2023/10/16 13:46:13;;;;;;;0.10;0.10;;;12.90;99.90;;;;;;5067871;28;20202;-79
2023/10/16 13:48:45;;;;;;;0.10;0.10;;;12.80;99.90;;;;;;5064952;28;20181;-79
2023/10/16 13:51:13;;;;;;;0.10;0.10;;;12.80;99.90;;;;;;5071150;28;20264;-79
2023/10/16 13:53:39;;;;;;;0.10;0.10;;;12.20;99.90;;;;;;5070983;28;20554;-80
2023/10/16 13:56:05;;;;;;;0.10;0.10;;;12.80;99.90;;;;;;5065259;28;20192;-81
2023/10/16 13:58:30;;;;;;;0.10;0.10;;;12.60;99.90;;;;;;5073090;28;20589;-80
2023/10/16 14:00:57;;;;;;;0.10;0.10;;;12.40;99.90;;;;;;5068935;28;20271;-80
2023/10/16 14:03:24;;;;;;;0.10;0.10;;;12.10;99.90;;;;;;5066709;28;20273;-80
2023/10/16 14:05:52;;;;;;;0.10;0.10;;;12.00;99.90;;;;;;5071253;28;20731;-79
2023/10/16 14:08:26;;;;;;;0.10;0.10;;;12.30;99.90;;;;;;5068395;28;20220;-80
2023/10/16 14:10:52;;;;;;;0.00;0.00;;;12.30;99.90;;;;;;5067174;28;20761;-80
2023/10/16 14:13:19;;;;;;;0.10;0.10;;;11.90;99.90;;;;;;5064979;28;20181;-80
2023/10/16 14:15:49;;;;;;;0.10;0.10;;;12.20;99.90;;;;;;5071090;28;20208;-80
2023/10/16 14:18:20;;;;;;;0.10;0.10;;;12.30;99.90;;;;;;5065660;28;20185;-80
2023/10/16 14:20:46;;;;;;;0.10;0.10;;;12.40;99.90;;;;;;5067717;28;20238;-81
2023/10/16 14:23:13;;;;;;;0.10;0.10;;;12.30;99.90;;;;;;5069432;28;20196;-81
2023/10/16 14:25:45;;;;;;;0.10;0.10;;;12.30;99.90;;;;;;5069459;28;20209;-80
2023/10/16 14:30:59;;;;;;;0.10;0.10;;;11.90;99.90;;;;;;5070893;28;20270;-79
2023/10/16 14:33:28;;;;;;;0.10;0.10;;;11.60;99.90;;;;;;5066440;28;20188;-80
2023/10/16 14:35:57;;;;;;;0.10;0.10;;;11.70;99.90;;;;;;5066408;28;20258;-80
2023/10/16 14:38:24;;;;;;;0.10;0.10;;;11.70;99.90;;;;;;5068321;28;20188;-80
2023/10/16 14:40:50;;;;;;;0.10;0.10;;;11.90;99.90;;;;;;5059794;28;20185;-80
2023/10/16 14:43:15;;;;;;;0.10;0.10;;;11.90;99.90;;;;;;5062823;28;20189;-80
2023/10/16 14:45:43;;;;;;;0.10;0.10;;;12.10;99.90;;;;;;5062194;28;20204;-79
2023/10/16 14:48:09;;;;;;;0.10;0.10;;;11.90;99.90;;;;;;5084631;28;20185;-79
2023/10/16 14:50:36;;;;;;;0.10;0.10;;;12.00;99.90;;;;;;5064127;28;20211;-80
2023/10/16 14:53:02;;;;;;;0.00;0.00;;;11.50;99.90;;;;;;5064628;28;20177;-80
2023/10/16 14:55:28;;;;;;;0.10;0.10;;;11.40;99.90;;;;;;5059217;28;20566;-80
2023/10/16 14:57:57;;;;;;;0.20;0.20;;;11.50;99.90;;;;;;5070507;28;20242;-80